createdAt,value
2018-01-28T00:00:29.417Z,0
2018-01-28T00:01:39.392Z,0
2018-01-28T00:02:48.840Z,0
2018-01-28T00:03:58.815Z,0
2018-01-28T00:05:08.796Z,0
2018-01-28T00:06:18.771Z,0
2018-01-28T00:07:28.483Z,0
2018-01-28T00:08:38.468Z,0
2018-01-28T00:09:48.182Z,0
2018-01-28T00:10:58.153Z,0
2018-01-28T00:12:07.604Z,0
2018-01-28T00:13:17.316Z,0
2018-01-28T00:14:26.509Z,0
2018-01-28T00:15:36.487Z,0
2018-01-28T00:16:46.224Z,0
2018-01-28T00:17:56.211Z,0
2018-01-28T00:19:06.190Z,0
2018-01-28T00:20:16.270Z,0
2018-01-28T00:21:26.251Z,0
2018-01-28T00:22:35.957Z,0
2018-01-28T00:23:45.137Z,0
2018-01-28T00:24:54.847Z,0
2018-01-28T00:26:04.972Z,0
2018-01-28T00:27:14.951Z,0
2018-01-28T00:28:24.670Z,0
2018-01-28T00:29:34.656Z,0
2018-01-28T00:30:44.369Z,0
2018-01-28T00:31:54.347Z,0
2018-01-28T00:33:04.063Z,0
2018-01-28T00:34:13.771Z,0
2018-01-28T00:35:23.483Z,0
2018-01-28T00:36:33.461Z,0
2018-01-28T00:37:43.172Z,0
2018-01-28T00:38:53.148Z,0
2018-01-28T00:40:02.597Z,0
2018-01-28T00:41:12.042Z,0
2018-01-28T00:42:22.027Z,0
2018-01-28T00:43:32.005Z,0
2018-01-28T00:44:41.458Z,0
2018-01-28T00:45:51.488Z,0
2018-01-28T00:47:01.207Z,0
2018-01-28T00:48:10.662Z,0
2018-01-28T00:49:20.387Z,0
2018-01-28T00:50:30.104Z,0
2018-01-28T00:51:39.288Z,0
2018-01-28T00:52:49.001Z,0
2018-01-28T00:53:58.986Z,0
2018-01-28T00:55:09.020Z,0
2018-01-28T00:56:18.202Z,0
2018-01-28T00:57:28.177Z,0
2018-01-28T00:58:38.155Z,0
2018-01-28T00:59:47.868Z,0
2018-01-28T01:00:57.848Z,0
2018-01-28T01:02:07.302Z,0
2018-01-28T01:03:17.286Z,0
2018-01-28T01:04:27.005Z,0
2018-01-28T01:05:36.455Z,0
2018-01-28T01:06:46.217Z,0
2018-01-28T01:07:55.929Z,0
2018-01-28T01:09:05.905Z,0
2018-01-28T01:10:15.617Z,0
2018-01-28T01:11:25.596Z,0
2018-01-28T01:12:35.310Z,0
2018-01-28T01:13:45.025Z,0
2018-01-28T01:14:55.005Z,0
2018-01-28T01:16:04.985Z,0
2018-01-28T01:17:14.170Z,0
2018-01-28T01:18:24.199Z,0
2018-01-28T01:19:34.179Z,0
2018-01-28T01:20:44.156Z,0
2018-01-28T01:21:53.603Z,0
2018-01-28T01:23:03.316Z,0
2018-01-28T01:24:13.299Z,0
2018-01-28T01:25:23.016Z,0
2018-01-28T01:26:32.998Z,0
2018-01-28T01:27:42.976Z,0
2018-01-28T01:28:52.694Z,0
2018-01-28T01:30:02.789Z,0
2018-01-28T01:31:12.504Z,0
2018-01-28T01:32:21.690Z,0
2018-01-28T01:35:44.490Z,0
2018-01-28T01:36:54.462Z,0
2018-01-28T01:38:04.171Z,0
2018-01-28T01:39:13.881Z,0
2018-01-28T01:40:23.854Z,0
2018-01-28T01:41:33.824Z,0
2018-01-28T01:42:43.267Z,0
2018-01-28T01:43:52.987Z,0
2018-01-28T01:45:03.023Z,0
2018-01-28T01:46:12.739Z,0
2018-01-28T01:47:22.777Z,0
2018-01-28T01:48:33.928Z,0
2018-01-28T01:49:43.112Z,0
2018-01-28T01:50:52.825Z,0
2018-01-28T01:52:02.798Z,0
2018-01-28T01:53:12.512Z,0
2018-01-28T01:54:22.480Z,0
2018-01-28T01:55:32.192Z,0
2018-01-28T01:56:41.640Z,0
2018-01-28T01:57:51.613Z,0
2018-01-28T01:59:01.059Z,0
2018-01-28T02:00:10.771Z,0
2018-01-28T02:01:20.479Z,0
2018-01-28T02:02:30.453Z,0
2018-01-28T02:03:40.429Z,0
2018-01-28T02:04:50.142Z,0
2018-01-28T02:06:00.174Z,0
2018-01-28T02:07:10.157Z,0
2018-01-28T02:08:20.136Z,0
2018-01-28T02:09:30.125Z,0
2018-01-28T02:10:40.100Z,0
2018-01-28T02:11:49.861Z,0
2018-01-28T02:12:59.831Z,0
2018-01-28T02:14:09.540Z,0
2018-01-28T02:15:18.996Z,0
2018-01-28T02:16:28.698Z,0
2018-01-28T02:17:38.407Z,0
2018-01-28T02:18:47.860Z,0
2018-01-28T02:19:57.843Z,0
2018-01-28T02:21:07.552Z,0
2018-01-28T02:22:17.534Z,0
2018-01-28T02:23:27.251Z,0
2018-01-28T02:24:36.962Z,0
2018-01-28T02:25:46.933Z,0
2018-01-28T02:26:56.904Z,0
2018-01-28T02:28:06.613Z,0
2018-01-28T02:29:16.329Z,0
2018-01-28T02:30:26.310Z,0
2018-01-28T02:31:36.027Z,0
2018-01-28T02:32:45.741Z,0
2018-01-28T02:33:55.449Z,0
2018-01-28T02:35:04.897Z,0
2018-01-28T02:36:14.614Z,0
2018-01-28T02:37:24.327Z,0
2018-01-28T02:38:34.309Z,0
2018-01-28T02:39:44.071Z,0
2018-01-28T02:40:53.783Z,0
2018-01-28T02:42:03.757Z,0
2018-01-28T02:43:13.733Z,0
2018-01-28T02:44:23.707Z,0
2018-01-28T02:45:33.683Z,0
2018-01-28T02:46:43.181Z,0
2018-01-28T02:47:53.162Z,0
2018-01-28T02:49:02.883Z,0
2018-01-28T02:50:12.904Z,0
2018-01-28T02:51:22.884Z,0
2018-01-28T02:52:32.860Z,0
2018-01-28T02:53:42.838Z,0
2018-01-28T02:54:52.823Z,0
2018-01-28T02:56:02.801Z,0
2018-01-28T02:57:12.525Z,0
2018-01-28T02:58:22.233Z,0
2018-01-28T02:59:32.208Z,0
2018-01-28T03:00:41.922Z,0
2018-01-28T03:01:51.900Z,0
2018-01-28T03:03:05.681Z,0
2018-01-28T03:04:15.397Z,0
2018-01-28T03:05:25.382Z,0
2018-01-28T03:06:35.358Z,0
2018-01-28T03:07:44.542Z,0
2018-01-28T03:08:54.357Z,0
2018-01-28T03:10:04.080Z,0
2018-01-28T03:11:14.064Z,0
2018-01-28T03:12:23.779Z,0
2018-01-28T03:13:33.751Z,0
2018-01-28T03:14:43.305Z,0
2018-01-28T03:15:53.277Z,0
2018-01-28T03:17:02.984Z,0
2018-01-28T03:18:12.431Z,0
2018-01-28T03:19:22.142Z,0
2018-01-28T03:20:32.120Z,0
2018-01-28T03:21:41.833Z,0
2018-01-28T03:22:51.542Z,0
2018-01-28T03:24:01.254Z,0
2018-01-28T03:25:11.245Z,0
2018-01-28T03:26:21.219Z,0
2018-01-28T03:27:31.194Z,0
2018-01-28T03:28:41.167Z,0
2018-01-28T03:29:50.878Z,0
2018-01-28T03:31:00.591Z,0
2018-01-28T03:32:10.566Z,0
2018-01-28T03:33:20.540Z,0
2018-01-28T03:34:29.993Z,0
2018-01-28T03:35:39.452Z,0
2018-01-28T03:36:49.166Z,0
2018-01-28T03:37:58.925Z,0
2018-01-28T03:39:08.903Z,0
2018-01-28T03:40:18.614Z,0
2018-01-28T03:41:28.325Z,0
2018-01-28T03:42:38.302Z,0
2018-01-28T03:43:48.327Z,0
2018-01-28T03:44:58.299Z,0
2018-01-28T03:46:08.021Z,0
2018-01-28T03:47:17.733Z,0
2018-01-28T03:48:27.711Z,0
2018-01-28T03:49:37.691Z,0
2018-01-28T03:50:47.133Z,0
2018-01-28T03:51:57.112Z,0
2018-01-28T03:53:07.091Z,0
2018-01-28T03:54:17.071Z,0
2018-01-28T03:55:26.780Z,0
2018-01-28T03:56:36.767Z,0
2018-01-28T03:57:46.212Z,0
2018-01-28T03:58:56.187Z,0
2018-01-28T04:00:06.169Z,0
2018-01-28T04:03:48.456Z,0
2018-01-28T04:04:58.429Z,0
2018-01-28T04:06:08.410Z,0
2018-01-28T04:07:18.383Z,0
2018-01-28T04:08:28.097Z,0
2018-01-28T04:09:37.809Z,0
2018-01-28T04:10:47.257Z,0
2018-01-28T04:11:57.233Z,0
2018-01-28T04:13:07.207Z,0
2018-01-28T04:14:16.929Z,0
2018-01-28T04:15:26.910Z,0
2018-01-28T04:16:36.888Z,0
2018-01-28T04:17:46.866Z,0
2018-01-28T04:18:56.842Z,0
2018-01-28T04:20:06.557Z,0
2018-01-28T04:21:16.267Z,0
2018-01-28T04:22:26.244Z,0
2018-01-28T04:23:35.957Z,0
2018-01-28T04:24:45.679Z,0
2018-01-28T04:25:55.652Z,0
2018-01-28T04:27:05.633Z,0
2018-01-28T04:28:15.610Z,0
2018-01-28T04:29:25.319Z,0
2018-01-28T04:30:35.295Z,0
2018-01-28T04:31:44.740Z,0
2018-01-28T04:32:54.712Z,0
2018-01-28T04:34:04.697Z,0
2018-01-28T04:35:14.409Z,0
2018-01-28T04:36:24.380Z,0
2018-01-28T04:37:33.833Z,0
2018-01-28T04:38:43.541Z,0
2018-01-28T04:39:53.260Z,0
2018-01-28T04:41:02.970Z,0
2018-01-28T04:42:12.946Z,0
2018-01-28T04:43:22.919Z,0
2018-01-28T04:44:32.627Z,0
2018-01-28T04:45:42.605Z,0
2018-01-28T04:46:51.788Z,0
2018-01-28T04:48:01.501Z,0
2018-01-28T04:49:11.209Z,0
2018-01-28T04:50:21.188Z,0
2018-01-28T04:51:30.898Z,0
2018-01-28T04:52:40.871Z,0
2018-01-28T04:53:50.592Z,0
2018-01-28T04:55:00.300Z,0
2018-01-28T04:56:10.012Z,0
2018-01-28T04:57:19.721Z,0
2018-01-28T04:58:29.433Z,0
2018-01-28T04:59:39.410Z,0
2018-01-28T05:00:49.114Z,0
2018-01-28T05:01:58.837Z,0
2018-01-28T05:03:08.811Z,0
2018-01-28T05:04:18.524Z,0
2018-01-28T05:05:28.241Z,0
2018-01-28T05:06:38.217Z,0
2018-01-28T05:07:48.190Z,0
2018-01-28T05:08:57.633Z,0
2018-01-28T05:10:07.356Z,0
2018-01-28T05:11:17.337Z,0
2018-01-28T05:12:27.045Z,0
2018-01-28T05:13:37.019Z,0
2018-01-28T05:14:46.728Z,0
2018-01-28T05:15:56.443Z,0
2018-01-28T05:17:06.421Z,0
2018-01-28T05:18:16.137Z,0
2018-01-28T05:19:26.114Z,0
2018-01-28T05:20:35.568Z,0
2018-01-28T05:21:44.499Z,0
2018-01-28T05:22:54.208Z,0
2018-01-28T05:24:03.397Z,0
2018-01-28T05:25:13.405Z,0
2018-01-28T05:26:23.381Z,0
2018-01-28T05:27:33.092Z,0
2018-01-28T05:28:42.802Z,0
2018-01-28T05:29:52.774Z,0
2018-01-28T05:31:02.763Z,0
2018-01-28T05:32:12.753Z,0
2018-01-28T05:33:22.519Z,0
2018-01-28T05:34:31.964Z,0
2018-01-28T05:35:41.937Z,0
2018-01-28T05:36:51.381Z,0
2018-01-28T05:38:01.093Z,0
2018-01-28T05:39:10.538Z,0
2018-01-28T05:40:20.512Z,0
2018-01-28T05:41:30.485Z,0
2018-01-28T05:42:40.461Z,0
2018-01-28T05:43:50.435Z,0
2018-01-28T05:45:00.156Z,0
2018-01-28T05:46:09.870Z,0
2018-01-28T05:47:19.844Z,0
2018-01-28T05:48:29.828Z,0
2018-01-28T05:49:39.275Z,0
2018-01-28T05:50:48.996Z,0
2018-01-28T05:51:58.704Z,0
2018-01-28T05:53:08.413Z,0
2018-01-28T05:54:18.393Z,0
2018-01-28T05:55:28.369Z,0
2018-01-28T05:56:38.345Z,0
2018-01-28T05:57:48.357Z,0
2018-01-28T05:58:58.334Z,0
2018-01-28T06:00:08.056Z,0
2018-01-28T06:01:17.769Z,0
2018-01-28T06:02:27.215Z,0
2018-01-28T06:03:37.196Z,0
2018-01-28T06:04:47.177Z,0
2018-01-28T06:05:56.888Z,0
2018-01-28T06:07:06.599Z,0
2018-01-28T06:08:16.569Z,0
2018-01-28T06:09:26.280Z,0
2018-01-28T06:10:35.994Z,0
2018-01-28T06:11:45.706Z,0
2018-01-28T06:12:55.677Z,0
2018-01-28T06:14:05.657Z,0
2018-01-28T06:15:15.105Z,0
2018-01-28T06:16:25.076Z,0
2018-01-28T06:17:34.785Z,0
2018-01-28T06:18:44.757Z,0
2018-01-28T06:19:54.730Z,0
2018-01-28T06:21:04.703Z,0
2018-01-28T06:22:14.415Z,0
2018-01-28T06:23:24.389Z,0
2018-01-28T06:24:33.840Z,0
2018-01-28T06:25:43.549Z,0
2018-01-28T06:26:53.527Z,0
2018-01-28T06:28:03.510Z,0
2018-01-28T06:29:13.321Z,0
2018-01-28T06:30:22.768Z,0
2018-01-28T06:31:32.484Z,0
2018-01-28T06:32:42.461Z,0
2018-01-28T06:33:52.434Z,0
2018-01-28T06:35:02.152Z,0
2018-01-28T06:36:12.137Z,0
2018-01-28T06:37:22.116Z,0
2018-01-28T06:38:32.091Z,0
2018-01-28T06:39:41.801Z,0
2018-01-28T06:40:51.510Z,0
2018-01-28T06:42:01.231Z,0
2018-01-28T06:43:10.944Z,0
2018-01-28T06:44:20.933Z,0
2018-01-28T06:45:30.645Z,0
2018-01-28T06:46:40.090Z,0
2018-01-28T06:47:49.798Z,0
2018-01-28T06:48:59.772Z,0
2018-01-28T06:50:09.745Z,0
2018-01-28T06:51:19.460Z,0
2018-01-28T06:52:29.442Z,0
2018-01-28T06:53:39.158Z,0
2018-01-28T06:54:48.937Z,0
2018-01-28T06:55:58.922Z,4
2018-01-28T06:57:08.645Z,4
2018-01-28T06:58:18.368Z,4
2018-01-28T06:59:28.082Z,0
2018-01-28T07:00:37.794Z,0
2018-01-28T07:01:46.716Z,4
2018-01-28T07:02:56.697Z,4
2018-01-28T07:04:06.678Z,0
2018-01-28T07:05:16.657Z,4
2018-01-28T07:06:26.643Z,4
2018-01-28T07:07:36.628Z,4
2018-01-28T07:08:46.605Z,8
2018-01-28T07:09:56.319Z,4
2018-01-28T07:11:06.039Z,8
2018-01-28T07:12:15.492Z,8
2018-01-28T07:13:25.480Z,12
2018-01-28T07:14:35.193Z,12
2018-01-28T07:15:44.902Z,12
2018-01-28T07:16:54.878Z,12
2018-01-28T07:18:04.857Z,12
2018-01-28T07:19:14.310Z,16
2018-01-28T07:20:24.295Z,20
2018-01-28T07:21:34.013Z,20
2018-01-28T07:22:43.732Z,24
2018-01-28T07:23:53.712Z,24
2018-01-28T07:25:03.691Z,32
2018-01-28T07:26:13.143Z,32
2018-01-28T07:27:22.860Z,36
2018-01-28T07:28:32.840Z,44
2018-01-28T07:29:42.823Z,48
2018-01-28T07:30:52.808Z,52
2018-01-28T07:32:02.788Z,60
2018-01-28T07:33:12.511Z,68
2018-01-28T07:34:22.496Z,76
2018-01-28T07:35:32.214Z,84
2018-01-28T07:36:42.203Z,96
2018-01-28T07:37:52.190Z,108
2018-01-28T07:39:02.168Z,120
2018-01-28T07:40:11.877Z,132
2018-01-28T07:41:21.867Z,144
2018-01-28T07:42:31.852Z,156
2018-01-28T07:43:41.566Z,164
2018-01-28T07:44:51.546Z,172
2018-01-28T07:46:01.261Z,180
2018-01-28T07:47:10.977Z,188
2018-01-28T07:48:20.957Z,204
2018-01-28T07:49:30.407Z,216
2018-01-28T07:50:40.396Z,236
2018-01-28T07:51:49.851Z,260
2018-01-28T07:52:59.829Z,288
2018-01-28T07:54:09.588Z,320
2018-01-28T07:55:19.307Z,352
2018-01-28T07:56:28.806Z,388
2018-01-28T07:57:38.790Z,420
2018-01-28T07:58:48.502Z,452
2018-01-28T07:59:58.489Z,472
2018-01-28T08:01:07.943Z,484
2018-01-28T08:02:17.924Z,496
2018-01-28T08:03:27.902Z,512
2018-01-28T08:04:37.887Z,532
2018-01-28T08:05:47.875Z,548
2018-01-28T08:06:57.884Z,564
2018-01-28T08:08:07.870Z,588
2018-01-28T08:09:17.584Z,608
2018-01-28T08:10:27.573Z,628
2018-01-28T08:11:37.027Z,652
2018-01-28T08:12:46.478Z,684
2018-01-28T08:13:56.477Z,724
2018-01-28T08:15:06.456Z,784
2018-01-28T08:16:16.172Z,864
2018-01-28T08:17:26.149Z,936
2018-01-28T08:18:36.124Z,1000
2018-01-28T08:19:45.576Z,1068
2018-01-28T08:20:55.297Z,1132
2018-01-28T08:22:05.014Z,1184
2018-01-28T08:23:14.737Z,1212
2018-01-28T08:24:24.717Z,1232
2018-01-28T08:25:34.171Z,1244
2018-01-28T08:26:44.157Z,1232
2018-01-28T08:27:54.152Z,1184
2018-01-28T08:29:03.866Z,1140
2018-01-28T08:30:13.852Z,1120
2018-01-28T08:31:23.828Z,1112
2018-01-28T08:32:33.808Z,1108
2018-01-28T08:33:43.797Z,1092
2018-01-28T08:34:53.776Z,1088
2018-01-28T08:36:03.757Z,1088
2018-01-28T08:37:13.735Z,1104
2018-01-28T08:38:23.458Z,1128
2018-01-28T08:39:33.177Z,1164
2018-01-28T08:40:42.890Z,1200
2018-01-28T08:41:52.868Z,1236
2018-01-28T08:43:02.852Z,1248
2018-01-28T08:44:12.835Z,1256
2018-01-28T08:45:22.824Z,1256
2018-01-28T08:46:32.809Z,1264
2018-01-28T08:47:42.526Z,1268
2018-01-28T08:48:52.240Z,1280
2018-01-28T08:50:01.694Z,1296
2018-01-28T08:51:11.416Z,1312
2018-01-28T08:52:21.137Z,1320
2018-01-28T08:53:30.854Z,1324
2018-01-28T08:54:40.837Z,1320
2018-01-28T08:55:49.759Z,1316
2018-01-28T08:56:59.750Z,1312
2018-01-28T08:58:09.730Z,1300
2018-01-28T08:59:19.453Z,1300
2018-01-28T09:00:29.433Z,1300
2018-01-28T09:01:39.414Z,1300
2018-01-28T09:02:49.399Z,1304
2018-01-28T09:03:58.848Z,1308
2018-01-28T09:05:08.832Z,1316
2018-01-28T09:06:18.548Z,1328
2018-01-28T09:07:28.265Z,1352
2018-01-28T09:08:37.722Z,1380
2018-01-28T09:09:47.708Z,1404
2018-01-28T09:10:57.431Z,1432
2018-01-28T09:12:06.874Z,1464
2018-01-28T09:13:16.596Z,1492
2018-01-28T09:14:26.580Z,1528
2018-01-28T09:15:36.557Z,1576
2018-01-28T09:16:46.376Z,1616
2018-01-28T09:17:56.368Z,1640
2018-01-28T09:19:06.347Z,1664
2018-01-28T09:20:16.328Z,1672
2018-01-28T09:21:26.321Z,1660
2018-01-28T09:22:36.304Z,1648
2018-01-28T09:23:46.297Z,1628
2018-01-28T09:24:56.281Z,1612
2018-01-28T09:26:05.731Z,1604
2018-01-28T09:27:15.716Z,1592
2018-01-28T09:28:25.429Z,1584
2018-01-28T09:29:35.516Z,1568
2018-01-28T09:30:45.235Z,1560
2018-01-28T09:31:55.219Z,1544
2018-01-28T09:33:05.204Z,1536
2018-01-28T09:34:15.190Z,1528
2018-01-28T09:35:24.905Z,1528
2018-01-28T09:36:34.894Z,1552
2018-01-28T09:37:44.634Z,1588
2018-01-28T09:38:54.357Z,1648
2018-01-28T09:40:04.335Z,1740
2018-01-28T09:41:14.102Z,1856
2018-01-28T09:42:24.092Z,2020
2018-01-28T09:43:33.813Z,2176
2018-01-28T09:44:43.812Z,2360
2018-01-28T09:45:53.632Z,2540
2018-01-28T09:47:03.618Z,2724
2018-01-28T09:48:13.072Z,2936
2018-01-28T09:49:23.067Z,3148
2018-01-28T09:50:32.785Z,3340
2018-01-28T09:51:42.766Z,3504
2018-01-28T09:52:52.797Z,3636
2018-01-28T09:54:02.785Z,3720
2018-01-28T09:55:12.507Z,3776
2018-01-28T09:56:22.497Z,3808
2018-01-28T09:57:32.476Z,3832
2018-01-28T09:58:42.460Z,3872
2018-01-28T09:59:51.913Z,3968
2018-01-28T10:01:01.899Z,4124
2018-01-28T10:02:11.615Z,4340
2018-01-28T10:03:21.344Z,4624
2018-01-28T10:04:31.063Z,4988
2018-01-28T10:05:41.044Z,5448
2018-01-28T10:06:51.032Z,6016
2018-01-28T10:08:00.751Z,6688
2018-01-28T10:09:09.939Z,7416
2018-01-28T10:10:19.920Z,8248
2018-01-28T10:11:29.905Z,9192
2018-01-28T10:12:39.352Z,10080
2018-01-28T10:13:48.810Z,10908
2018-01-28T10:14:58.788Z,11484
2018-01-28T10:16:08.507Z,12000
2018-01-28T10:17:18.494Z,12396
2018-01-28T10:18:28.478Z,12716
2018-01-28T10:19:38.466Z,12800
2018-01-28T10:20:48.453Z,13092
2018-01-28T10:21:57.910Z,12792
2018-01-28T10:23:07.894Z,12236
2018-01-28T10:24:17.884Z,11572
2018-01-28T10:25:27.602Z,10876
2018-01-28T10:26:37.600Z,9840
2018-01-28T10:27:47.584Z,8848
2018-01-28T10:28:57.568Z,8132
2018-01-28T10:30:07.550Z,7776
2018-01-28T10:31:17.008Z,7140
2018-01-28T10:32:26.466Z,6572
2018-01-28T10:33:36.446Z,5300
2018-01-28T10:34:45.897Z,4564
2018-01-28T10:35:55.619Z,5068
2018-01-28T10:37:05.605Z,4516
2018-01-28T10:38:15.327Z,3816
2018-01-28T10:39:25.053Z,3400
2018-01-28T10:40:34.510Z,3324
2018-01-28T10:41:44.227Z,3540
2018-01-28T10:42:53.943Z,3788
2018-01-28T10:44:03.667Z,3688
2018-01-28T10:45:13.386Z,3664
2018-01-28T10:46:23.108Z,3684
2018-01-28T10:47:32.828Z,3776
2018-01-28T10:48:42.556Z,4076
2018-01-28T10:49:52.280Z,4488
2018-01-28T10:51:02.309Z,4920
2018-01-28T10:52:12.289Z,5324
2018-01-28T10:53:22.275Z,5892
2018-01-28T10:54:31.729Z,6076
2018-01-28T10:55:41.711Z,6512
2018-01-28T10:56:51.701Z,6256
2018-01-28T10:58:01.157Z,6108
2018-01-28T10:59:10.890Z,6192
2018-01-28T11:00:20.900Z,7036
2018-01-28T11:01:30.624Z,7120
2018-01-28T11:02:40.339Z,7008
2018-01-28T11:03:50.054Z,7204
2018-01-28T11:05:00.041Z,6864
2018-01-28T11:06:09.760Z,6764
2018-01-28T11:07:19.745Z,6772
2018-01-28T11:08:29.735Z,6876
2018-01-28T11:09:39.455Z,7252
2018-01-28T11:10:49.176Z,7816
2018-01-28T11:11:58.634Z,8272
2018-01-28T11:13:08.356Z,8364
2018-01-28T11:14:18.080Z,8716
2018-01-28T11:15:27.803Z,9592
2018-01-28T11:16:37.790Z,9312
2018-01-28T11:17:47.771Z,8680
2018-01-28T11:18:57.814Z,8196
2018-01-28T11:20:07.268Z,7664
2018-01-28T11:21:16.985Z,7776
2018-01-28T11:22:26.974Z,7836
2018-01-28T11:23:36.959Z,7744
2018-01-28T11:24:46.411Z,7724
2018-01-28T11:25:56.397Z,7932
2018-01-28T11:27:06.380Z,8152
2018-01-28T11:28:16.111Z,7988
2018-01-28T11:29:26.100Z,7912
2018-01-28T11:30:36.084Z,7680
2018-01-28T11:31:45.816Z,7016
2018-01-28T11:32:55.543Z,6180
2018-01-28T11:34:05.262Z,5500
2018-01-28T11:35:14.722Z,5024
2018-01-28T11:36:24.702Z,4744
2018-01-28T11:37:33.894Z,4580
2018-01-28T11:38:43.401Z,4500
2018-01-28T11:39:53.120Z,4640
2018-01-28T11:41:02.843Z,5056
2018-01-28T11:42:12.831Z,5608
2018-01-28T11:43:22.809Z,6152
2018-01-28T11:44:32.798Z,6576
2018-01-28T11:45:42.780Z,6856
2018-01-28T11:46:52.504Z,7128
2018-01-28T11:48:02.486Z,7480
2018-01-28T11:49:12.203Z,7880
2018-01-28T11:50:22.194Z,8308
2018-01-28T11:51:32.186Z,8308
2018-01-28T11:52:41.910Z,8028
2018-01-28T11:53:51.891Z,7820
2018-01-28T11:55:01.872Z,7372
2018-01-28T11:56:11.594Z,6812
2018-01-28T11:57:21.575Z,6328
2018-01-28T11:58:31.562Z,6108
2018-01-28T11:59:41.017Z,6380
2018-01-28T12:00:50.746Z,6644
2018-01-28T12:02:00.733Z,6700
2018-01-28T12:03:10.451Z,6416
2018-01-28T12:04:19.911Z,5796
2018-01-28T12:05:29.911Z,5352
2018-01-28T12:06:39.627Z,5304
2018-01-28T12:07:49.344Z,5312
2018-01-28T12:08:59.062Z,5288
2018-01-28T12:10:08.783Z,5340
2018-01-28T12:11:18.239Z,5428
2018-01-28T12:12:28.228Z,5152
2018-01-28T12:13:37.480Z,4724
2018-01-28T12:14:47.215Z,4508
2018-01-28T12:15:57.205Z,4372
2018-01-28T12:17:06.927Z,4316
2018-01-28T12:18:16.647Z,4124
2018-01-28T12:19:26.364Z,4020
2018-01-28T12:20:36.358Z,4024
2018-01-28T12:21:45.284Z,4124
2018-01-28T12:22:55.276Z,4292
2018-01-28T12:24:04.993Z,4444
2018-01-28T12:25:14.996Z,4500
2018-01-28T12:26:24.721Z,4428
2018-01-28T12:27:34.702Z,4252
2018-01-28T12:28:44.686Z,3988
2018-01-28T12:29:54.667Z,3680
2018-01-28T12:31:04.652Z,3348
2018-01-28T12:32:14.368Z,3024
2018-01-28T12:33:23.834Z,2804
2018-01-28T12:34:33.821Z,2712
2018-01-28T12:35:43.807Z,2688
2018-01-28T12:36:53.555Z,2656
2018-01-28T12:38:03.275Z,2640
2018-01-28T12:39:12.993Z,2700
2018-01-28T12:40:22.729Z,2864
2018-01-28T12:41:32.716Z,3092
2018-01-28T12:42:42.435Z,3268
2018-01-28T12:43:51.890Z,3320
2018-01-28T12:45:01.886Z,3240
2018-01-28T12:46:11.870Z,3064
2018-01-28T12:47:21.855Z,2776
2018-01-28T12:48:31.308Z,2424
2018-01-28T12:49:41.034Z,2160
2018-01-28T12:50:51.015Z,2088
2018-01-28T12:52:00.742Z,2212
2018-01-28T12:53:10.199Z,2444
2018-01-28T12:54:19.925Z,2684
2018-01-28T12:55:29.915Z,2856
2018-01-28T12:56:39.644Z,2948
2018-01-28T12:57:49.370Z,2956
2018-01-28T12:58:59.351Z,2908
2018-01-28T13:00:09.350Z,2844
2018-01-28T13:01:19.337Z,2812
2018-01-28T13:02:29.322Z,2812
2018-01-28T13:03:38.517Z,2796
2018-01-28T13:04:48.342Z,2748
2018-01-28T13:05:58.325Z,2640
2018-01-28T13:07:08.358Z,2464
2018-01-28T13:08:18.354Z,2308
2018-01-28T13:09:27.811Z,2240
2018-01-28T13:10:37.800Z,2216
2018-01-28T13:11:47.521Z,2140
2018-01-28T13:12:57.513Z,2044
2018-01-28T13:14:07.233Z,1984
2018-01-28T13:15:17.216Z,1960
2018-01-28T13:16:27.255Z,1956
2018-01-28T13:17:37.239Z,1972
2018-01-28T13:18:47.222Z,2028
2018-01-28T13:19:57.209Z,2120
2018-01-28T13:21:06.932Z,2216
2018-01-28T13:22:16.914Z,2284
2018-01-28T13:23:26.899Z,2300
2018-01-28T13:24:36.884Z,2296
2018-01-28T13:25:46.340Z,2264
2018-01-28T13:26:56.068Z,2228
2018-01-28T13:28:06.053Z,2188
2018-01-28T13:29:15.787Z,2156
2018-01-28T13:30:25.780Z,2144
2018-01-28T13:31:35.498Z,2132
2018-01-28T13:32:45.487Z,2100
2018-01-28T13:34:00.962Z,2040
2018-01-28T13:35:10.683Z,1984
2018-01-28T13:36:20.681Z,1940
2018-01-28T13:37:30.412Z,1896
2018-01-28T13:38:40.129Z,1848
2018-01-28T13:39:49.852Z,1784
2018-01-28T13:40:59.571Z,1712
2018-01-28T13:42:09.573Z,1640
2018-01-28T13:43:19.557Z,1584
2018-01-28T13:44:29.284Z,1548
2018-01-28T13:45:39.326Z,1528
2018-01-28T13:46:49.048Z,1524
2018-01-28T13:47:59.035Z,1536
2018-01-28T13:49:08.804Z,1564
2018-01-28T13:50:18.788Z,1600
2018-01-28T13:51:28.603Z,1648
2018-01-28T13:52:38.588Z,1688
2018-01-28T13:53:48.312Z,1700
2018-01-28T13:54:58.034Z,1680
2018-01-28T13:56:07.752Z,1636
2018-01-28T13:57:17.476Z,1584
2018-01-28T13:58:27.198Z,1544
2018-01-28T13:59:37.183Z,1524
2018-01-28T14:00:47.171Z,1528
2018-01-28T14:01:56.686Z,1536
2018-01-28T14:03:05.874Z,1556
2018-01-28T14:04:15.870Z,1596
2018-01-28T14:05:25.850Z,1660
2018-01-28T14:06:35.835Z,1724
2018-01-28T14:07:45.026Z,1736
2018-01-28T14:08:55.007Z,1688
2018-01-28T14:10:04.737Z,1616
2018-01-28T14:11:14.192Z,1568
2018-01-28T14:12:23.649Z,1548
2018-01-28T14:13:33.364Z,1528
2018-01-28T14:14:42.815Z,1532
2018-01-28T14:15:52.528Z,1540
2018-01-28T14:17:01.724Z,1528
2018-01-28T14:18:11.442Z,1496
2018-01-28T14:19:21.161Z,1464
2018-01-28T14:20:31.145Z,1448
2018-01-28T14:21:40.870Z,1436
2018-01-28T14:22:50.587Z,1388
2018-01-28T14:24:00.567Z,1344
2018-01-28T14:25:10.281Z,1304
2018-01-28T14:26:20.316Z,1268
2018-01-28T14:27:30.129Z,1228
2018-01-28T14:28:40.126Z,1200
2018-01-28T14:29:50.107Z,1176
2018-01-28T14:30:59.559Z,1144
2018-01-28T14:32:09.282Z,1104
2018-01-28T14:33:19.008Z,1060
2018-01-28T14:34:28.987Z,1008
2018-01-28T14:35:38.976Z,960
2018-01-28T14:36:48.429Z,916
2018-01-28T14:37:58.297Z,880
2018-01-28T14:39:08.010Z,840
2018-01-28T14:40:17.992Z,812
2018-01-28T14:41:27.717Z,772
2018-01-28T14:42:37.435Z,736
2018-01-28T14:43:47.421Z,692
2018-01-28T14:44:57.143Z,656
2018-01-28T14:46:07.162Z,612
2018-01-28T14:47:16.896Z,572
2018-01-28T14:48:26.881Z,524
2018-01-28T14:49:36.855Z,468
2018-01-28T14:50:46.575Z,416
2018-01-28T14:51:56.307Z,384
2018-01-28T14:53:06.294Z,364
2018-01-28T14:54:16.340Z,348
2018-01-28T14:55:26.373Z,324
2018-01-28T14:56:36.159Z,300
2018-01-28T14:57:46.149Z,272
2018-01-28T14:58:56.126Z,248
2018-01-28T15:00:06.108Z,232
2018-01-28T15:01:15.828Z,216
2018-01-28T15:02:25.545Z,196
2018-01-28T15:03:35.530Z,188
2018-01-28T15:04:45.252Z,176
2018-01-28T15:05:55.236Z,164
2018-01-28T15:07:05.263Z,156
2018-01-28T15:08:14.979Z,152
2018-01-28T15:09:24.964Z,144
2018-01-28T15:10:34.682Z,140
2018-01-28T15:11:44.139Z,136
2018-01-28T15:12:53.853Z,132
2018-01-28T15:14:03.568Z,132
2018-01-28T15:15:12.802Z,124
2018-01-28T15:16:22.526Z,116
2018-01-28T15:17:32.518Z,116
2018-01-28T15:18:42.548Z,108
2018-01-28T15:19:52.526Z,100
2018-01-28T15:21:02.509Z,92
2018-01-28T15:22:11.960Z,84
2018-01-28T15:23:21.680Z,80
2018-01-28T15:24:31.498Z,76
2018-01-28T15:25:41.483Z,64
2018-01-28T15:26:51.463Z,60
2018-01-28T15:28:01.446Z,60
2018-01-28T15:29:11.427Z,52
2018-01-28T15:30:20.894Z,48
2018-01-28T15:31:30.621Z,44
2018-01-28T15:32:40.339Z,36
2018-01-28T15:33:49.847Z,32
2018-01-28T15:34:59.841Z,32
2018-01-28T15:36:09.348Z,28
2018-01-28T15:37:19.330Z,28
2018-01-28T15:38:29.047Z,20
2018-01-28T15:39:39.025Z,20
2018-01-28T15:40:48.478Z,12
2018-01-28T15:41:58.194Z,12
2018-01-28T15:43:07.914Z,12
2018-01-28T15:44:17.894Z,12
2018-01-28T15:45:27.611Z,12
2018-01-28T15:46:37.609Z,8
2018-01-28T15:47:47.592Z,4
2018-01-28T15:48:57.305Z,8
2018-01-28T15:50:07.282Z,4
2018-01-28T15:51:17.006Z,4
2018-01-28T15:52:26.991Z,4
2018-01-28T15:53:36.446Z,4
2018-01-28T15:54:46.166Z,4
2018-01-28T15:55:56.145Z,4
2018-01-28T15:57:05.863Z,0
2018-01-28T15:58:15.314Z,0
2018-01-28T15:59:24.769Z,0
2018-01-28T16:00:34.487Z,0
2018-01-28T16:01:44.466Z,0
2018-01-28T16:02:53.910Z,0
2018-01-28T16:04:03.896Z,0
2018-01-28T16:05:13.876Z,0
2018-01-28T16:06:23.862Z,0
2018-01-28T16:07:33.847Z,0
2018-01-28T16:08:43.826Z,0
2018-01-28T16:09:53.804Z,0
2018-01-28T16:11:03.790Z,0
2018-01-28T16:12:13.774Z,0
2018-01-28T16:13:23.493Z,0
2018-01-28T16:14:33.474Z,0
2018-01-28T16:15:43.188Z,0
2018-01-28T16:16:52.639Z,0
2018-01-28T16:18:02.357Z,0
2018-01-28T16:19:12.077Z,0
2018-01-28T16:20:22.053Z,0
2018-01-28T16:21:32.058Z,0
2018-01-28T16:22:41.831Z,0
2018-01-28T16:23:51.552Z,0
2018-01-28T16:25:01.528Z,0
2018-01-28T16:26:11.242Z,0